sensor_id;sensor_type;location;lat;lon;timestamp;P1;durP1;ratioP1;P2;durP2;ratioP2
6561;SDS011;3314;50.890;4.722;2023-03-12T00:00:29;13.4;;;3.4;;
6561;SDS011;3314;50.890;4.722;2023-03-12T00:02:29;20.2;;;3.9;;
6561;SDS011;3314;50.890;4.722;2023-03-12T00:04:30;10.7;;;3.3;;
6561;SDS011;3314;50.890;4.722;2023-03-12T00:06:30;14.6;;;3.3;;
6561;SDS011;3314;50.890;4.722;2023-03-12T00:08:30;13.1;;;3.8;;
6561;SDS011;3314;50.890;4.722;2023-03-12T00:10:29;11.2;;;3.5;;
6561;SDS011;3314;50.890;4.722;2023-03-12T00:12:29;14.4;;;3.6;;
6561;SDS011;3314;50.890;4.722;2023-03-12T00:14:29;16.0;;;4.4;;
6561;SDS011;3314;50.890;4.722;2023-03-12T00:16:29;12.6;;;3.5;;
6561;SDS011;3314;50.890;4.722;2023-03-12T00:18:28;24.9;;;3.1;;
6561;SDS011;3314;50.890;4.722;2023-03-12T00:20:28;13.7;;;3.8;;
6561;SDS011;3314;50.890;4.722;2023-03-12T00:22:28;15.6;;;4.0;;
6561;SDS011;3314;50.890;4.722;2023-03-12T00:24:27;14.6;;;3.2;;
6561;SDS011;3314;50.890;4.722;2023-03-12T00:26:27;13.2;;;3.4;;
6561;SDS011;3314;50.890;4.722;2023-03-12T00:28:27;12.4;;;3.8;;
6561;SDS011;3314;50.890;4.722;2023-03-12T00:30:28;13.5;;;3.8;;
6561;SDS011;3314;50.890;4.722;2023-03-12T00:32:17;15.6;;;4.2;;
6561;SDS011;3314;50.890;4.722;2023-03-12T00:34:17;13.7;;;3.4;;
6561;SDS011;3314;50.890;4.722;2023-03-12T00:36:17;15.0;;;3.9;;
6561;SDS011;3314;50.890;4.722;2023-03-12T00:38:17;11.6;;;3.2;;
6561;SDS011;3314;50.890;4.722;2023-03-12T00:40:16;11.4;;;3.4;;
6561;SDS011;3314;50.890;4.722;2023-03-12T00:42:16;15.5;;;3.7;;
6561;SDS011;3314;50.890;4.722;2023-03-12T00:44:16;13.6;;;3.4;;
6561;SDS011;3314;50.890;4.722;2023-03-12T00:46:16;15.3;;;3.5;;
6561;SDS011;3314;50.890;4.722;2023-03-12T00:48:16;13.6;;;3.4;;
6561;SDS011;3314;50.890;4.722;2023-03-12T00:50:16;13.9;;;3.7;;
6561;SDS011;3314;50.890;4.722;2023-03-12T00:52:15;14.3;;;3.9;;
6561;SDS011;3314;50.890;4.722;2023-03-12T00:54:15;12.9;;;3.4;;
6561;SDS011;3314;50.890;4.722;2023-03-12T00:56:15;12.0;;;3.4;;
6561;SDS011;3314;50.890;4.722;2023-03-12T00:58:14;17.5;;;3.6;;
6561;SDS011;3314;50.890;4.722;2023-03-12T01:00:14;15.1;;;3.3;;
6561;SDS011;3314;50.890;4.722;2023-03-12T01:02:14;10.2;;;3.6;;
6561;SDS011;3314;50.890;4.722;2023-03-12T01:04:14;11.0;;;3.8;;
6561;SDS011;3314;50.890;4.722;2023-03-12T01:06:13;14.0;;;3.4;;
6561;SDS011;3314;50.890;4.722;2023-03-12T01:08:13;12.1;;;3.5;;
6561;SDS011;3314;50.890;4.722;2023-03-12T01:10:13;13.3;;;3.1;;
6561;SDS011;3314;50.890;4.722;2023-03-12T01:12:13;13.6;;;3.4;;
6561;SDS011;3314;50.890;4.722;2023-03-12T01:14:13;13.9;;;3.2;;
6561;SDS011;3314;50.890;4.722;2023-03-12T01:16:13;13.5;;;3.3;;
6561;SDS011;3314;50.890;4.722;2023-03-12T01:18:13;12.7;;;3.1;;
6561;SDS011;3314;50.890;4.722;2023-03-12T01:20:12;15.4;;;3.5;;
6561;SDS011;3314;50.890;4.722;2023-03-12T01:22:12;17.5;;;3.7;;
6561;SDS011;3314;50.890;4.722;2023-03-12T01:24:12;11.0;;;3.2;;
6561;SDS011;3314;50.890;4.722;2023-03-12T01:26:11;12.1;;;3.0;;
6561;SDS011;3314;50.890;4.722;2023-03-12T01:28:11;9.1;;;2.8;;
6561;SDS011;3314;50.890;4.722;2023-03-12T01:30:11;14.1;;;2.7;;
6561;SDS011;3314;50.890;4.722;2023-03-12T01:32:11;12.9;;;3.1;;
6561;SDS011;3314;50.890;4.722;2023-03-12T01:34:10;16.5;;;3.1;;
6561;SDS011;3314;50.890;4.722;2023-03-12T01:36:14;12.5;;;2.5;;
6561;SDS011;3314;50.890;4.722;2023-03-12T01:38:03;9.5;;;2.2;;
6561;SDS011;3314;50.890;4.722;2023-03-12T01:40:04;11.9;;;2.8;;
6561;SDS011;3314;50.890;4.722;2023-03-12T01:42:04;11.1;;;2.2;;
6561;SDS011;3314;50.890;4.722;2023-03-12T01:44:04;12.1;;;2.7;;
6561;SDS011;3314;50.890;4.722;2023-03-12T01:46:06;10.0;;;2.2;;
6561;SDS011;3314;50.890;4.722;2023-03-12T01:48:06;9.3;;;2.0;;
6561;SDS011;3314;50.890;4.722;2023-03-12T01:50:05;8.9;;;2.3;;
6561;SDS011;3314;50.890;4.722;2023-03-12T01:52:07;9.4;;;2.2;;
6561;SDS011;3314;50.890;4.722;2023-03-12T01:54:09;8.0;;;2.1;;
6561;SDS011;3314;50.890;4.722;2023-03-12T01:56:09;8.8;;;2.3;;
6561;SDS011;3314;50.890;4.722;2023-03-12T01:57:59;9.8;;;1.9;;
6561;SDS011;3314;50.890;4.722;2023-03-12T02:00:00;11.1;;;2.4;;
6561;SDS011;3314;50.890;4.722;2023-03-12T02:02:02;9.6;;;2.3;;
6561;SDS011;3314;50.890;4.722;2023-03-12T02:04:02;8.3;;;2.1;;
6561;SDS011;3314;50.890;4.722;2023-03-12T02:06:03;9.9;;;2.4;;
6561;SDS011;3314;50.890;4.722;2023-03-12T02:08:04;10.1;;;2.0;;
6561;SDS011;3314;50.890;4.722;2023-03-12T02:10:04;8.8;;;2.1;;
6561;SDS011;3314;50.890;4.722;2023-03-12T02:12:04;7.8;;;1.9;;
6561;SDS011;3314;50.890;4.722;2023-03-12T02:14:04;7.5;;;2.0;;
6561;SDS011;3314;50.890;4.722;2023-03-12T02:16:04;10.0;;;2.3;;
6561;SDS011;3314;50.890;4.722;2023-03-12T02:18:04;9.4;;;2.0;;
6561;SDS011;3314;50.890;4.722;2023-03-12T02:20:09;8.8;;;1.9;;
6561;SDS011;3314;50.890;4.722;2023-03-12T02:21:59;8.5;;;1.8;;
6561;SDS011;3314;50.890;4.722;2023-03-12T02:24:01;7.8;;;1.6;;
6561;SDS011;3314;50.890;4.722;2023-03-12T02:26:01;9.5;;;1.9;;
6561;SDS011;3314;50.890;4.722;2023-03-12T02:28:02;12.0;;;1.6;;
6561;SDS011;3314;50.890;4.722;2023-03-12T02:29:53;15.1;;;1.7;;
6561;SDS011;3314;50.890;4.722;2023-03-12T02:31:53;7.3;;;1.8;;
6561;SDS011;3314;50.890;4.722;2023-03-12T02:33:55;10.5;;;2.2;;
6561;SDS011;3314;50.890;4.722;2023-03-12T02:35:55;7.9;;;1.7;;
6561;SDS011;3314;50.890;4.722;2023-03-12T02:37:55;12.7;;;1.6;;
6561;SDS011;3314;50.890;4.722;2023-03-12T02:39:56;8.4;;;1.8;;
6561;SDS011;3314;50.890;4.722;2023-03-12T02:41:58;10.6;;;2.1;;
6561;SDS011;3314;50.890;4.722;2023-03-12T02:44:00;7.1;;;1.5;;
6561;SDS011;3314;50.890;4.722;2023-03-12T02:45:49;7.0;;;1.9;;
6561;SDS011;3314;50.890;4.722;2023-03-12T02:47:49;9.5;;;2.6;;
6561;SDS011;3314;50.890;4.722;2023-03-12T02:49:49;7.0;;;1.5;;
6561;SDS011;3314;50.890;4.722;2023-03-12T02:51:48;13.2;;;2.4;;
6561;SDS011;3314;50.890;4.722;2023-03-12T02:53:54;8.1;;;1.6;;
6561;SDS011;3314;50.890;4.722;2023-03-12T02:55:53;11.0;;;2.0;;
6561;SDS011;3314;50.890;4.722;2023-03-12T02:57:53;13.2;;;2.0;;
6561;SDS011;3314;50.890;4.722;2023-03-12T02:59:53;8.7;;;2.2;;
6561;SDS011;3314;50.890;4.722;2023-03-12T03:01:54;9.3;;;2.4;;
6561;SDS011;3314;50.890;4.722;2023-03-12T03:03:54;9.5;;;2.1;;
6561;SDS011;3314;50.890;4.722;2023-03-12T03:05:54;8.1;;;2.0;;
6561;SDS011;3314;50.890;4.722;2023-03-12T03:07:54;10.1;;;2.2;;
6561;SDS011;3314;50.890;4.722;2023-03-12T03:09:53;8.8;;;2.0;;
6561;SDS011;3314;50.890;4.722;2023-03-12T03:11:53;11.4;;;2.0;;
6561;SDS011;3314;50.890;4.722;2023-03-12T03:13:53;10.5;;;1.9;;
6561;SDS011;3314;50.890;4.722;2023-03-12T03:15:53;10.7;;;1.9;;
6561;SDS011;3314;50.890;4.722;2023-03-12T03:17:52;7.3;;;1.9;;
6561;SDS011;3314;50.890;4.722;2023-03-12T03:19:52;10.7;;;1.9;;
6561;SDS011;3314;50.890;4.722;2023-03-12T03:21:43;9.2;;;2.1;;
6561;SDS011;3314;50.890;4.722;2023-03-12T03:23:43;9.0;;;2.2;;
6561;SDS011;3314;50.890;4.722;2023-03-12T03:25:43;12.0;;;1.7;;
6561;SDS011;3314;50.890;4.722;2023-03-12T03:27:44;11.8;;;2.0;;
6561;SDS011;3314;50.890;4.722;2023-03-12T03:29:44;8.7;;;1.8;;
6561;SDS011;3314;50.890;4.722;2023-03-12T03:31:44;9.1;;;1.4;;
6561;SDS011;3314;50.890;4.722;2023-03-12T03:33:43;8.3;;;1.9;;
6561;SDS011;3314;50.890;4.722;2023-03-12T03:35:43;8.6;;;1.6;;
6561;SDS011;3314;50.890;4.722;2023-03-12T03:37:43;8.4;;;1.8;;
6561;SDS011;3314;50.890;4.722;2023-03-12T03:39:42;9.7;;;1.6;;
6561;SDS011;3314;50.890;4.722;2023-03-12T03:41:42;9.1;;;2.1;;
6561;SDS011;3314;50.890;4.722;2023-03-12T03:43:42;6.6;;;1.6;;
6561;SDS011;3314;50.890;4.722;2023-03-12T03:45:44;10.0;;;1.8;;
6561;SDS011;3314;50.890;4.722;2023-03-12T03:47:44;8.6;;;1.9;;
6561;SDS011;3314;50.890;4.722;2023-03-12T03:49:44;6.6;;;1.7;;
6561;SDS011;3314;50.890;4.722;2023-03-12T03:51:44;6.7;;;1.5;;
6561;SDS011;3314;50.890;4.722;2023-03-12T03:53:44;9.2;;;2.0;;
6561;SDS011;3314;50.890;4.722;2023-03-12T03:55:43;7.2;;;1.6;;
6561;SDS011;3314;50.890;4.722;2023-03-12T03:57:43;6.9;;;1.6;;
6561;SDS011;3314;50.890;4.722;2023-03-12T03:59:43;10.4;;;1.6;;
6561;SDS011;3314;50.890;4.722;2023-03-12T04:01:43;7.6;;;1.8;;
6561;SDS011;3314;50.890;4.722;2023-03-12T04:03:42;8.0;;;1.4;;
6561;SDS011;3314;50.890;4.722;2023-03-12T04:05:44;7.3;;;2.0;;
6561;SDS011;3314;50.890;4.722;2023-03-12T04:07:32;9.4;;;1.9;;
6561;SDS011;3314;50.890;4.722;2023-03-12T04:09:32;8.9;;;2.0;;
6561;SDS011;3314;50.890;4.722;2023-03-12T04:11:32;7.1;;;1.5;;
6561;SDS011;3314;50.890;4.722;2023-03-12T04:13:32;10.4;;;2.3;;
6561;SDS011;3314;50.890;4.722;2023-03-12T04:15:31;7.4;;;1.9;;
6561;SDS011;3314;50.890;4.722;2023-03-12T04:17:31;9.4;;;1.6;;
6561;SDS011;3314;50.890;4.722;2023-03-12T04:19:31;10.2;;;2.0;;
6561;SDS011;3314;50.890;4.722;2023-03-12T04:21:31;9.9;;;1.9;;
6561;SDS011;3314;50.890;4.722;2023-03-12T04:23:30;12.0;;;2.0;;
6561;SDS011;3314;50.890;4.722;2023-03-12T04:25:30;10.1;;;1.8;;
6561;SDS011;3314;50.890;4.722;2023-03-12T04:27:30;8.6;;;1.5;;
6561;SDS011;3314;50.890;4.722;2023-03-12T04:29:29;13.1;;;2.3;;
6561;SDS011;3314;50.890;4.722;2023-03-12T04:31:29;7.6;;;1.9;;
6561;SDS011;3314;50.890;4.722;2023-03-12T04:33:29;9.8;;;2.3;;
6561;SDS011;3314;50.890;4.722;2023-03-12T04:35:29;8.2;;;1.7;;
6561;SDS011;3314;50.890;4.722;2023-03-12T04:37:30;8.9;;;2.6;;
6561;SDS011;3314;50.890;4.722;2023-03-12T04:39:30;10.4;;;2.0;;
6561;SDS011;3314;50.890;4.722;2023-03-12T04:41:30;11.2;;;2.7;;
6561;SDS011;3314;50.890;4.722;2023-03-12T04:43:30;11.1;;;2.3;;
6561;SDS011;3314;50.890;4.722;2023-03-12T04:45:30;8.2;;;2.6;;
6561;SDS011;3314;50.890;4.722;2023-03-12T04:47:30;9.7;;;1.8;;
6561;SDS011;3314;50.890;4.722;2023-03-12T04:49:29;8.8;;;1.8;;
6561;SDS011;3314;50.890;4.722;2023-03-12T04:51:30;10.3;;;2.3;;
6561;SDS011;3314;50.890;4.722;2023-03-12T04:53:30;7.5;;;2.4;;
6561;SDS011;3314;50.890;4.722;2023-03-12T04:55:30;9.4;;;2.4;;
6561;SDS011;3314;50.890;4.722;2023-03-12T04:57:29;8.5;;;1.8;;
6561;SDS011;3314;50.890;4.722;2023-03-12T04:59:29;7.8;;;2.2;;
6561;SDS011;3314;50.890;4.722;2023-03-12T05:01:30;9.8;;;1.8;;
6561;SDS011;3314;50.890;4.722;2023-03-12T05:03:30;11.5;;;2.9;;
6561;SDS011;3314;50.890;4.722;2023-03-12T05:05:30;10.1;;;2.3;;
6561;SDS011;3314;50.890;4.722;2023-03-12T05:07:29;8.4;;;1.8;;
6561;SDS011;3314;50.890;4.722;2023-03-12T05:09:29;11.7;;;2.0;;
6561;SDS011;3314;50.890;4.722;2023-03-12T05:11:29;9.7;;;3.1;;
6561;SDS011;3314;50.890;4.722;2023-03-12T05:13:20;8.8;;;1.7;;
6561;SDS011;3314;50.890;4.722;2023-03-12T05:15:20;7.8;;;1.9;;
6561;SDS011;3314;50.890;4.722;2023-03-12T05:17:19;9.1;;;2.1;;
6561;SDS011;3314;50.890;4.722;2023-03-12T05:19:19;9.8;;;2.2;;
6561;SDS011;3314;50.890;4.722;2023-03-12T05:21:19;8.0;;;1.8;;
6561;SDS011;3314;50.890;4.722;2023-03-12T05:23:19;7.7;;;2.0;;
6561;SDS011;3314;50.890;4.722;2023-03-12T05:25:19;14.5;;;2.6;;
6561;SDS011;3314;50.890;4.722;2023-03-12T05:27:18;8.1;;;2.1;;
6561;SDS011;3314;50.890;4.722;2023-03-12T05:29:18;13.7;;;1.9;;
6561;SDS011;3314;50.890;4.722;2023-03-12T05:31:18;10.7;;;2.6;;
6561;SDS011;3314;50.890;4.722;2023-03-12T05:33:18;11.9;;;2.6;;
6561;SDS011;3314;50.890;4.722;2023-03-12T05:35:17;8.7;;;2.0;;
6561;SDS011;3314;50.890;4.722;2023-03-12T05:37:17;9.1;;;2.1;;
6561;SDS011;3314;50.890;4.722;2023-03-12T05:39:17;15.9;;;2.3;;
6561;SDS011;3314;50.890;4.722;2023-03-12T05:41:18;9.4;;;2.2;;
6561;SDS011;3314;50.890;4.722;2023-03-12T05:43:18;9.8;;;2.4;;
6561;SDS011;3314;50.890;4.722;2023-03-12T05:45:19;15.4;;;2.4;;
6561;SDS011;3314;50.890;4.722;2023-03-12T05:47:18;8.7;;;2.4;;
6561;SDS011;3314;50.890;4.722;2023-03-12T05:49:18;8.2;;;2.4;;
6561;SDS011;3314;50.890;4.722;2023-03-12T05:51:18;8.4;;;2.3;;
6561;SDS011;3314;50.890;4.722;2023-03-12T05:53:18;8.6;;;2.3;;
6561;SDS011;3314;50.890;4.722;2023-03-12T05:55:18;10.2;;;2.8;;
6561;SDS011;3314;50.890;4.722;2023-03-12T05:57:17;9.3;;;2.5;;
6561;SDS011;3314;50.890;4.722;2023-03-12T05:59:17;7.5;;;2.1;;
6561;SDS011;3314;50.890;4.722;2023-03-12T06:01:18;7.9;;;2.5;;
6561;SDS011;3314;50.890;4.722;2023-03-12T06:03:17;10.6;;;3.0;;
6561;SDS011;3314;50.890;4.722;2023-03-12T06:05:17;9.0;;;2.3;;
6561;SDS011;3314;50.890;4.722;2023-03-12T06:07:17;9.8;;;3.0;;
6561;SDS011;3314;50.890;4.722;2023-03-12T06:09:17;8.8;;;3.0;;
6561;SDS011;3314;50.890;4.722;2023-03-12T06:11:16;8.1;;;2.1;;
6561;SDS011;3314;50.890;4.722;2023-03-12T06:13:16;13.8;;;2.9;;
6561;SDS011;3314;50.890;4.722;2023-03-12T06:15:16;13.0;;;3.6;;
6561;SDS011;3314;50.890;4.722;2023-03-12T06:17:15;8.0;;;2.7;;
6561;SDS011;3314;50.890;4.722;2023-03-12T06:19:06;9.2;;;2.8;;
6561;SDS011;3314;50.890;4.722;2023-03-12T06:21:07;10.0;;;2.7;;
6561;SDS011;3314;50.890;4.722;2023-03-12T06:23:07;9.4;;;3.1;;
6561;SDS011;3314;50.890;4.722;2023-03-12T06:25:07;11.0;;;4.3;;
6561;SDS011;3314;50.890;4.722;2023-03-12T06:27:06;10.3;;;3.4;;
6561;SDS011;3314;50.890;4.722;2023-03-12T06:29:06;11.0;;;2.9;;
6561;SDS011;3314;50.890;4.722;2023-03-12T06:31:06;11.7;;;3.0;;
6561;SDS011;3314;50.890;4.722;2023-03-12T06:33:08;11.9;;;3.7;;
6561;SDS011;3314;50.890;4.722;2023-03-12T06:35:08;11.7;;;3.1;;
6561;SDS011;3314;50.890;4.722;2023-03-12T06:37:08;9.9;;;3.5;;
6561;SDS011;3314;50.890;4.722;2023-03-12T06:39:09;12.5;;;3.7;;
6561;SDS011;3314;50.890;4.722;2023-03-12T06:41:10;13.2;;;3.8;;
6561;SDS011;3314;50.890;4.722;2023-03-12T06:43:11;10.9;;;3.5;;
6561;SDS011;3314;50.890;4.722;2023-03-12T06:45:00;14.5;;;3.6;;
6561;SDS011;3314;50.890;4.722;2023-03-12T06:46:59;11.0;;;4.0;;
6561;SDS011;3314;50.890;4.722;2023-03-12T06:48:59;8.9;;;3.4;;
6561;SDS011;3314;50.890;4.722;2023-03-12T06:50:59;11.5;;;3.9;;
6561;SDS011;3314;50.890;4.722;2023-03-12T06:52:58;13.3;;;3.9;;
6561;SDS011;3314;50.890;4.722;2023-03-12T06:54:58;12.9;;;4.4;;
6561;SDS011;3314;50.890;4.722;2023-03-12T06:56:58;13.9;;;4.4;;
6561;SDS011;3314;50.890;4.722;2023-03-12T06:58:58;13.7;;;5.0;;
6561;SDS011;3314;50.890;4.722;2023-03-12T07:00:58;11.6;;;3.9;;
6561;SDS011;3314;50.890;4.722;2023-03-12T07:02:58;12.8;;;3.6;;
6561;SDS011;3314;50.890;4.722;2023-03-12T07:04:57;14.0;;;4.3;;
6561;SDS011;3314;50.890;4.722;2023-03-12T07:06:57;9.1;;;3.9;;
6561;SDS011;3314;50.890;4.722;2023-03-12T07:08:57;10.5;;;4.2;;
6561;SDS011;3314;50.890;4.722;2023-03-12T07:10:57;12.4;;;4.3;;
6561;SDS011;3314;50.890;4.722;2023-03-12T07:12:56;12.0;;;3.7;;
6561;SDS011;3314;50.890;4.722;2023-03-12T07:14:56;10.7;;;3.4;;
6561;SDS011;3314;50.890;4.722;2023-03-12T07:16:57;10.3;;;3.9;;
6561;SDS011;3314;50.890;4.722;2023-03-12T07:18:57;10.5;;;3.9;;
6561;SDS011;3314;50.890;4.722;2023-03-12T07:20:56;12.8;;;4.6;;
6561;SDS011;3314;50.890;4.722;2023-03-12T07:22:56;10.8;;;4.2;;
6561;SDS011;3314;50.890;4.722;2023-03-12T07:24:56;10.7;;;4.2;;
6561;SDS011;3314;50.890;4.722;2023-03-12T07:26:56;10.4;;;3.6;;
6561;SDS011;3314;50.890;4.722;2023-03-12T07:28:55;12.2;;;3.8;;
6561;SDS011;3314;50.890;4.722;2023-03-12T07:30:58;11.1;;;4.7;;
6561;SDS011;3314;50.890;4.722;2023-03-12T07:32:58;11.6;;;4.1;;
6561;SDS011;3314;50.890;4.722;2023-03-12T07:34:59;11.4;;;4.6;;
6561;SDS011;3314;50.890;4.722;2023-03-12T07:36:59;12.3;;;4.6;;
6561;SDS011;3314;50.890;4.722;2023-03-12T07:38:59;12.4;;;4.4;;
6561;SDS011;3314;50.890;4.722;2023-03-12T07:40:59;14.0;;;4.2;;
6561;SDS011;3314;50.890;4.722;2023-03-12T07:42:49;11.8;;;4.3;;
6561;SDS011;3314;50.890;4.722;2023-03-12T07:44:48;10.8;;;4.3;;
6561;SDS011;3314;50.890;4.722;2023-03-12T07:46:48;10.8;;;3.8;;
6561;SDS011;3314;50.890;4.722;2023-03-12T07:48:47;11.9;;;4.2;;
6561;SDS011;3314;50.890;4.722;2023-03-12T07:50:47;14.2;;;4.6;;
6561;SDS011;3314;50.890;4.722;2023-03-12T07:52:47;16.3;;;5.5;;
6561;SDS011;3314;50.890;4.722;2023-03-12T07:54:47;14.8;;;4.5;;
6561;SDS011;3314;50.890;4.722;2023-03-12T07:56:46;12.8;;;5.2;;
6561;SDS011;3314;50.890;4.722;2023-03-12T07:58:46;14.2;;;3.8;;
6561;SDS011;3314;50.890;4.722;2023-03-12T08:00:46;11.9;;;4.0;;
6561;SDS011;3314;50.890;4.722;2023-03-12T08:02:45;14.7;;;4.4;;
6561;SDS011;3314;50.890;4.722;2023-03-12T08:04:45;14.5;;;4.5;;
6561;SDS011;3314;50.890;4.722;2023-03-12T08:06:45;13.0;;;4.7;;
6561;SDS011;3314;50.890;4.722;2023-03-12T08:08:44;13.6;;;4.2;;
6561;SDS011;3314;50.890;4.722;2023-03-12T08:10:44;16.1;;;4.5;;
6561;SDS011;3314;50.890;4.722;2023-03-12T08:12:44;14.9;;;4.6;;
6561;SDS011;3314;50.890;4.722;2023-03-12T08:14:44;17.2;;;4.5;;
6561;SDS011;3314;50.890;4.722;2023-03-12T08:16:43;17.3;;;4.6;;
6561;SDS011;3314;50.890;4.722;2023-03-12T08:18:43;19.1;;;5.2;;
6561;SDS011;3314;50.890;4.722;2023-03-12T08:20:43;20.0;;;5.6;;
6561;SDS011;3314;50.890;4.722;2023-03-12T08:22:43;30.3;;;7.3;;
6561;SDS011;3314;50.890;4.722;2023-03-12T08:24:42;22.1;;;6.0;;
6561;SDS011;3314;50.890;4.722;2023-03-12T08:26:42;22.3;;;5.8;;
6561;SDS011;3314;50.890;4.722;2023-03-12T08:28:42;30.1;;;7.2;;
6561;SDS011;3314;50.890;4.722;2023-03-12T08:30:44;26.9;;;5.9;;
6561;SDS011;3314;50.890;4.722;2023-03-12T08:32:44;38.7;;;7.4;;
6561;SDS011;3314;50.890;4.722;2023-03-12T08:34:43;26.4;;;6.7;;
6561;SDS011;3314;50.890;4.722;2023-03-12T08:36:44;41.1;;;7.6;;
6561;SDS011;3314;50.890;4.722;2023-03-12T08:38:43;35.0;;;8.1;;
6561;SDS011;3314;50.890;4.722;2023-03-12T08:40:43;27.6;;;7.4;;
6561;SDS011;3314;50.890;4.722;2023-03-12T08:42:43;36.1;;;7.3;;
6561;SDS011;3314;50.890;4.722;2023-03-12T08:44:43;41.4;;;8.3;;
6561;SDS011;3314;50.890;4.722;2023-03-12T08:46:43;43.0;;;8.5;;
6561;SDS011;3314;50.890;4.722;2023-03-12T08:48:42;31.1;;;8.2;;
6561;SDS011;3314;50.890;4.722;2023-03-12T08:50:42;26.9;;;7.2;;
6561;SDS011;3314;50.890;4.722;2023-03-12T08:52:42;29.7;;;7.3;;
6561;SDS011;3314;50.890;4.722;2023-03-12T08:54:42;41.1;;;7.6;;
6561;SDS011;3314;50.890;4.722;2023-03-12T08:56:43;32.0;;;7.0;;
6561;SDS011;3314;50.890;4.722;2023-03-12T08:58:42;25.7;;;7.7;;
6561;SDS011;3314;50.890;4.722;2023-03-12T09:00:42;34.4;;;8.1;;
6561;SDS011;3314;50.890;4.722;2023-03-12T09:02:42;27.0;;;7.9;;
6561;SDS011;3314;50.890;4.722;2023-03-12T09:04:42;48.9;;;8.4;;
6561;SDS011;3314;50.890;4.722;2023-03-12T09:06:34;34.4;;;8.2;;
6561;SDS011;3314;50.890;4.722;2023-03-12T09:08:34;27.8;;;7.7;;
6561;SDS011;3314;50.890;4.722;2023-03-12T09:10:34;43.7;;;8.2;;
6561;SDS011;3314;50.890;4.722;2023-03-12T09:12:34;29.6;;;7.8;;
6561;SDS011;3314;50.890;4.722;2023-03-12T09:14:34;36.3;;;6.7;;
6561;SDS011;3314;50.890;4.722;2023-03-12T09:16:33;34.1;;;7.7;;
6561;SDS011;3314;50.890;4.722;2023-03-12T09:18:33;42.3;;;8.5;;
6561;SDS011;3314;50.890;4.722;2023-03-12T09:20:33;47.9;;;8.8;;
6561;SDS011;3314;50.890;4.722;2023-03-12T09:22:36;29.3;;;7.7;;
6561;SDS011;3314;50.890;4.722;2023-03-12T09:24:36;35.4;;;7.4;;
6561;SDS011;3314;50.890;4.722;2023-03-12T09:26:36;36.3;;;7.6;;
6561;SDS011;3314;50.890;4.722;2023-03-12T09:28:35;42.0;;;7.5;;
6561;SDS011;3314;50.890;4.722;2023-03-12T09:30:35;36.3;;;7.3;;
6561;SDS011;3314;50.890;4.722;2023-03-12T09:32:34;32.2;;;5.9;;
6561;SDS011;3314;50.890;4.722;2023-03-12T09:34:34;26.5;;;5.9;;
6561;SDS011;3314;50.890;4.722;2023-03-12T09:36:34;37.2;;;7.0;;
6561;SDS011;3314;50.890;4.722;2023-03-12T09:38:34;31.2;;;6.9;;
6561;SDS011;3314;50.890;4.722;2023-03-12T09:40:36;32.4;;;6.8;;
6561;SDS011;3314;50.890;4.722;2023-03-12T09:42:37;27.5;;;5.9;;
6561;SDS011;3314;50.890;4.722;2023-03-12T09:44:28;38.9;;;6.0;;
6561;SDS011;3314;50.890;4.722;2023-03-12T09:46:29;40.0;;;6.5;;
6561;SDS011;3314;50.890;4.722;2023-03-12T09:48:33;33.2;;;6.5;;
6561;SDS011;3314;50.890;4.722;2023-03-12T09:50:33;24.3;;;5.8;;
6561;SDS011;3314;50.890;4.722;2023-03-12T09:52:35;26.8;;;5.5;;
6561;SDS011;3314;50.890;4.722;2023-03-12T09:54:27;37.3;;;5.5;;
6561;SDS011;3314;50.890;4.722;2023-03-12T09:56:29;31.1;;;5.9;;
6561;SDS011;3314;50.890;4.722;2023-03-12T09:58:30;28.2;;;4.8;;
6561;SDS011;3314;50.890;4.722;2023-03-12T10:00:31;22.4;;;4.7;;
6561;SDS011;3314;50.890;4.722;2023-03-12T10:02:41;25.2;;;5.8;;
6561;SDS011;3314;50.890;4.722;2023-03-12T10:04:33;27.1;;;4.8;;
6561;SDS011;3314;50.890;4.722;2023-03-12T10:06:24;33.6;;;5.2;;
6561;SDS011;3314;50.890;4.722;2023-03-12T10:08:28;31.9;;;5.9;;
6561;SDS011;3314;50.890;4.722;2023-03-12T10:10:32;36.9;;;6.7;;
6561;SDS011;3314;50.890;4.722;2023-03-12T10:12:23;32.8;;;5.7;;
6561;SDS011;3314;50.890;4.722;2023-03-12T10:14:31;31.2;;;5.7;;
6561;SDS011;3314;50.890;4.722;2023-03-12T10:16:26;27.4;;;5.2;;
6561;SDS011;3314;50.890;4.722;2023-03-12T10:18:31;28.0;;;5.6;;
6561;SDS011;3314;50.890;4.722;2023-03-12T10:20:28;30.6;;;5.9;;
6561;SDS011;3314;50.890;4.722;2023-03-12T10:22:22;28.9;;;4.9;;
6561;SDS011;3314;50.890;4.722;2023-03-12T10:24:28;26.8;;;4.7;;
6561;SDS011;3314;50.890;4.722;2023-03-12T10:26:29;27.8;;;4.6;;
6561;SDS011;3314;50.890;4.722;2023-03-12T10:28:19;30.9;;;5.3;;
6561;SDS011;3314;50.890;4.722;2023-03-12T10:30:21;36.9;;;5.5;;
6561;SDS011;3314;50.890;4.722;2023-03-12T10:32:23;38.2;;;6.2;;
6561;SDS011;3314;50.890;4.722;2023-03-12T10:34:27;31.1;;;5.1;;
6561;SDS011;3314;50.890;4.722;2023-03-12T10:36:28;34.6;;;4.0;;
6561;SDS011;3314;50.890;4.722;2023-03-12T10:38:21;21.4;;;4.6;;
6561;SDS011;3314;50.890;4.722;2023-03-12T10:40:24;28.4;;;4.8;;
6561;SDS011;3314;50.890;4.722;2023-03-12T10:42:25;42.5;;;6.3;;
6561;SDS011;3314;50.890;4.722;2023-03-12T10:44:25;31.7;;;4.8;;
6561;SDS011;3314;50.890;4.722;2023-03-12T10:46:59;30.6;;;4.6;;
6561;SDS011;3314;50.890;4.722;2023-03-12T10:48:24;36.6;;;6.1;;
6561;SDS011;3314;50.890;4.722;2023-03-12T10:50:24;26.9;;;5.0;;
6561;SDS011;3314;50.890;4.722;2023-03-12T10:52:24;35.5;;;6.2;;
6561;SDS011;3314;50.890;4.722;2023-03-12T10:54:28;24.6;;;5.9;;
6561;SDS011;3314;50.890;4.722;2023-03-12T10:56:17;30.8;;;5.1;;
6561;SDS011;3314;50.890;4.722;2023-03-12T10:58:21;32.4;;;5.8;;
6561;SDS011;3314;50.890;4.722;2023-03-12T11:00:26;25.8;;;5.4;;
6561;SDS011;3314;50.890;4.722;2023-03-12T11:02:30;31.3;;;4.6;;
6561;SDS011;3314;50.890;4.722;2023-03-12T11:04:20;29.4;;;4.7;;
6561;SDS011;3314;50.890;4.722;2023-03-12T11:06:23;23.7;;;4.8;;
6561;SDS011;3314;50.890;4.722;2023-03-12T11:08:18;34.3;;;5.6;;
6561;SDS011;3314;50.890;4.722;2023-03-12T11:10:20;27.5;;;4.9;;
6561;SDS011;3314;50.890;4.722;2023-03-12T11:12:21;35.7;;;5.4;;
6561;SDS011;3314;50.890;4.722;2023-03-12T11:14:26;29.4;;;4.9;;
6561;SDS011;3314;50.890;4.722;2023-03-12T11:16:23;29.1;;;6.4;;
6561;SDS011;3314;50.890;4.722;2023-03-12T11:18:20;31.0;;;4.4;;
6561;SDS011;3314;50.890;4.722;2023-03-12T11:20:24;38.7;;;5.6;;
6561;SDS011;3314;50.890;4.722;2023-03-12T11:22:15;32.1;;;6.7;;
6561;SDS011;3314;50.890;4.722;2023-03-12T11:24:13;24.3;;;5.3;;
6561;SDS011;3314;50.890;4.722;2023-03-12T11:26:15;31.8;;;5.3;;
6561;SDS011;3314;50.890;4.722;2023-03-12T11:28:20;28.2;;;5.0;;
6561;SDS011;3314;50.890;4.722;2023-03-12T11:30:11;30.9;;;5.5;;
6561;SDS011;3314;50.890;4.722;2023-03-12T11:32:14;34.4;;;5.2;;
6561;SDS011;3314;50.890;4.722;2023-03-12T11:34:17;33.8;;;4.9;;
6561;SDS011;3314;50.890;4.722;2023-03-12T11:36:13;31.3;;;5.1;;
6561;SDS011;3314;50.890;4.722;2023-03-12T11:38:18;29.5;;;5.6;;
6561;SDS011;3314;50.890;4.722;2023-03-12T11:40:15;23.7;;;4.3;;
6561;SDS011;3314;50.890;4.722;2023-03-12T11:42:19;26.3;;;4.8;;
6561;SDS011;3314;50.890;4.722;2023-03-12T11:44:25;27.4;;;4.4;;
6561;SDS011;3314;50.890;4.722;2023-03-12T11:46:17;32.0;;;6.1;;
6561;SDS011;3314;50.890;4.722;2023-03-12T11:48:11;27.5;;;5.2;;
6561;SDS011;3314;50.890;4.722;2023-03-12T11:50:14;27.7;;;5.8;;
6561;SDS011;3314;50.890;4.722;2023-03-12T11:52:08;24.5;;;4.6;;
6561;SDS011;3314;50.890;4.722;2023-03-12T11:54:16;31.4;;;4.3;;
6561;SDS011;3314;50.890;4.722;2023-03-12T11:56:09;23.0;;;4.6;;
6561;SDS011;3314;50.890;4.722;2023-03-12T11:58:16;25.9;;;3.9;;
6561;SDS011;3314;50.890;4.722;2023-03-12T12:00:13;39.2;;;4.6;;
6561;SDS011;3314;50.890;4.722;2023-03-12T12:02:19;23.7;;;4.8;;
6561;SDS011;3314;50.890;4.722;2023-03-12T12:04:15;21.6;;;3.9;;
6561;SDS011;3314;50.890;4.722;2023-03-12T12:06:05;27.9;;;3.7;;
6561;SDS011;3314;50.890;4.722;2023-03-12T12:08:11;17.6;;;3.2;;
6561;SDS011;3314;50.890;4.722;2023-03-12T12:10:05;20.2;;;4.3;;
6561;SDS011;3314;50.890;4.722;2023-03-12T12:12:11;23.1;;;3.8;;
6561;SDS011;3314;50.890;4.722;2023-03-12T12:14:15;29.5;;;5.5;;
6561;SDS011;3314;50.890;4.722;2023-03-12T12:16:11;22.6;;;4.9;;
6561;SDS011;3314;50.890;4.722;2023-03-12T12:18:12;31.6;;;5.1;;
6561;SDS011;3314;50.890;4.722;2023-03-12T12:20:14;32.7;;;6.4;;
6561;SDS011;3314;50.890;4.722;2023-03-12T12:22:17;27.9;;;4.8;;
6561;SDS011;3314;50.890;4.722;2023-03-12T12:24:13;32.5;;;5.1;;
6561;SDS011;3314;50.890;4.722;2023-03-12T12:26:06;26.5;;;4.3;;
6561;SDS011;3314;50.890;4.722;2023-03-12T12:28:12;34.2;;;5.3;;
6561;SDS011;3314;50.890;4.722;2023-03-12T12:30:05;33.1;;;4.8;;
6561;SDS011;3314;50.890;4.722;2023-03-12T12:32:10;26.2;;;4.7;;
6561;SDS011;3314;50.890;4.722;2023-03-12T12:34:20;32.4;;;4.1;;
6561;SDS011;3314;50.890;4.722;2023-03-12T12:35:59;25.6;;;4.0;;
6561;SDS011;3314;50.890;4.722;2023-03-12T12:38:01;28.8;;;4.2;;